sensor_id;sensor_type;location;lat;lon;timestamp;pressure;altitude;pressure_sealevel;temperature;humidity
48800;BME280;34611;47.964;7.982;2023-10-09T00:03:49;97504.28;;;16.14;57.11
48800;BME280;34611;47.964;7.982;2023-10-09T00:10:57;97497.25;;;16.14;57.05
48800;BME280;34611;47.964;7.982;2023-10-09T00:17:59;97499.06;;;16.14;57.13
48800;BME280;34611;47.964;7.982;2023-10-09T00:24:59;97490.38;;;16.13;57.03
48800;BME280;34611;47.964;7.982;2023-10-09T00:32:12;97494.63;;;16.14;57.11
48800;BME280;34611;47.964;7.982;2023-10-09T00:39:32;97491.19;;;16.14;57.20
48800;BME280;34611;47.964;7.982;2023-10-09T00:46:38;97492.00;;;16.14;57.19
48800;BME280;34611;47.964;7.982;2023-10-09T00:53:46;97471.88;;;16.15;57.06
48800;BME280;34611;47.964;7.982;2023-10-09T01:00:53;97472.00;;;16.13;56.98
48800;BME280;34611;47.964;7.982;2023-10-09T01:07:53;97469.25;;;16.15;57.08
48800;BME280;34611;47.964;7.982;2023-10-09T01:14:58;97461.38;;;16.15;57.18
48800;BME280;34611;47.964;7.982;2023-10-09T01:21:59;97455.28;;;16.14;57.25
48800;BME280;34611;47.964;7.982;2023-10-09T01:29:13;97446.44;;;16.15;57.03
48800;BME280;34611;47.964;7.982;2023-10-09T01:36:18;97444.78;;;16.14;57.11
48800;BME280;34611;47.964;7.982;2023-10-09T01:43:18;97436.09;;;16.14;57.11
48800;BME280;34611;47.964;7.982;2023-10-09T01:50:19;97432.53;;;16.15;57.14
48800;BME280;34611;47.964;7.982;2023-10-09T01:57:24;97438.59;;;16.15;57.17
48800;BME280;34611;47.964;7.982;2023-10-09T02:04:25;97441.22;;;16.15;57.17
48800;BME280;34611;47.964;7.982;2023-10-09T02:11:25;97438.59;;;16.15;57.11
48800;BME280;34611;47.964;7.982;2023-10-09T02:18:43;97430.72;;;16.15;57.18
48800;BME280;34611;47.964;7.982;2023-10-09T02:25:56;97435.97;;;16.15;57.01
48800;BME280;34611;47.964;7.982;2023-10-09T02:32:57;97425.47;;;16.15;57.22
48800;BME280;34611;47.964;7.982;2023-10-09T02:40:06;97426.28;;;16.16;57.20
48800;BME280;34611;47.964;7.982;2023-10-09T02:47:08;97420.22;;;16.15;57.21
48800;BME280;34611;47.964;7.982;2023-10-09T02:54:18;97423.81;;;16.14;57.23
48800;BME280;34611;47.964;7.982;2023-10-09T03:01:18;97414.97;;;16.15;57.35
48800;BME280;34611;47.964;7.982;2023-10-09T03:08:19;97403.66;;;16.15;57.22
48800;BME280;34611;47.964;7.982;2023-10-09T03:15:19;97405.31;;;16.16;57.22
48800;BME280;34611;47.964;7.982;2023-10-09T03:22:20;97400.88;;;16.16;57.14
48800;BME280;34611;47.964;7.982;2023-10-09T03:29:21;97399.25;;;16.15;57.26
48800;BME280;34611;47.964;7.982;2023-10-09T03:36:22;97398.41;;;16.15;57.27
48800;BME280;34611;47.964;7.982;2023-10-09T03:43:26;97392.19;;;16.16;57.27
48800;BME280;34611;47.964;7.982;2023-10-09T03:50:32;97384.03;;;16.19;57.16
48800;BME280;34611;47.964;7.982;2023-10-09T03:57:38;97388.69;;;16.07;55.62
48800;BME280;34611;47.964;7.982;2023-10-09T04:04:39;97402.09;;;16.04;54.96
48800;BME280;34611;47.964;7.982;2023-10-09T04:11:39;97395.34;;;16.02;55.04
48800;BME280;34611;47.964;7.982;2023-10-09T04:18:43;97395.34;;;16.02;55.20
48800;BME280;34611;47.964;7.982;2023-10-09T04:25:45;97396.47;;;15.99;54.93
48800;BME280;34611;47.964;7.982;2023-10-09T04:32:51;97386.13;;;15.97;54.70
48800;BME280;34611;47.964;7.982;2023-10-09T04:39:55;97381.72;;;15.98;54.57
48800;BME280;34611;47.964;7.982;2023-10-09T04:47:11;97394.81;;;15.98;54.23
48800;BME280;34611;47.964;7.982;2023-10-09T04:54:14;97390.53;;;15.97;54.21
48800;BME280;34611;47.964;7.982;2023-10-09T05:01:14;97395.78;;;15.97;54.42
48800;BME280;34611;47.964;7.982;2023-10-09T05:08:22;97397.13;;;16.01;55.11
48800;BME280;34611;47.964;7.982;2023-10-09T05:15:28;97402.91;;;16.05;55.16
48800;BME280;34611;47.964;7.982;2023-10-09T05:22:34;97409.78;;;16.06;55.46
48800;BME280;34611;47.964;7.982;2023-10-09T05:29:37;97404.56;;;16.06;55.69
48800;BME280;34611;47.964;7.982;2023-10-09T05:36:49;97413.25;;;16.06;55.93
48800;BME280;34611;47.964;7.982;2023-10-09T05:43:49;97417.53;;;16.07;55.94
48800;BME280;34611;47.964;7.982;2023-10-09T05:51:08;97420.16;;;16.07;56.09
48800;BME280;34611;47.964;7.982;2023-10-09T05:58:34;97423.59;;;16.08;56.22
48800;BME280;34611;47.964;7.982;2023-10-09T06:05:54;97426.22;;;16.08;56.21
48800;BME280;34611;47.964;7.982;2023-10-09T06:12:57;97424.41;;;16.08;56.23
48800;BME280;34611;47.964;7.982;2023-10-09T06:20:03;97431.31;;;16.09;56.32
48800;BME280;34611;47.964;7.982;2023-10-09T06:27:24;97437.38;;;16.10;56.29
48800;BME280;34611;47.964;7.982;2023-10-09T06:34:26;97446.06;;;16.10;56.42
48800;BME280;34611;47.964;7.982;2023-10-09T06:41:32;97457.53;;;16.09;56.54
48800;BME280;34611;47.964;7.982;2023-10-09T06:48:37;97469.66;;;16.10;56.50
48800;BME280;34611;47.964;7.982;2023-10-09T06:55:41;97482.78;;;16.10;56.48
48800;BME280;34611;47.964;7.982;2023-10-09T07:03:01;97485.41;;;16.10;56.56
48800;BME280;34611;47.964;7.982;2023-10-09T07:10:11;97488.03;;;16.10;56.55
48800;BME280;34611;47.964;7.982;2023-10-09T07:17:29;97490.66;;;16.10;56.63
48800;BME280;34611;47.964;7.982;2023-10-09T07:24:33;97499.19;;;16.12;56.66
48800;BME280;34611;47.964;7.982;2023-10-09T07:31:43;97503.63;;;16.12;56.64
48800;BME280;34611;47.964;7.982;2023-10-09T07:38:46;97495.75;;;16.12;56.60
48800;BME280;34611;47.964;7.982;2023-10-09T07:45:55;97494.78;;;16.13;56.70
48800;BME280;34611;47.964;7.982;2023-10-09T07:52:58;97499.19;;;16.12;56.64
48800;BME280;34611;47.964;7.982;2023-10-09T08:00:15;97493.94;;;16.12;56.55
48800;BME280;34611;47.964;7.982;2023-10-09T08:07:33;97504.44;;;16.12;56.70
48800;BME280;34611;47.964;7.982;2023-10-09T08:14:37;97498.38;;;16.12;56.68
48800;BME280;34611;47.964;7.982;2023-10-09T08:21:37;97506.09;;;16.13;56.58
48800;BME280;34611;47.964;7.982;2023-10-09T08:29:04;97504.44;;;16.12;56.84
48800;BME280;34611;47.964;7.982;2023-10-09T08:36:17;97505.28;;;16.13;56.69
48800;BME280;34611;47.964;7.982;2023-10-09T08:43:22;97505.28;;;16.13;56.76
48800;BME280;34611;47.964;7.982;2023-10-09T08:50:23;97500.84;;;16.13;56.94
48800;BME280;34611;47.964;7.982;2023-10-09T08:57:28;97495.63;;;16.13;56.81
48800;BME280;34611;47.964;7.982;2023-10-09T09:04:37;97488.69;;;16.12;56.75
48800;BME280;34611;47.964;7.982;2023-10-09T09:11:41;97492.16;;;16.13;56.90
48800;BME280;34611;47.964;7.982;2023-10-09T09:18:55;97495.63;;;16.13;56.76
48800;BME280;34611;47.964;7.982;2023-10-09T09:26:13;97491.19;;;16.14;56.71
48800;BME280;34611;47.964;7.982;2023-10-09T09:33:17;97484.31;;;16.13;56.88
48800;BME280;34611;47.964;7.982;2023-10-09T09:40:20;97485.13;;;16.13;56.76
48800;BME280;34611;47.964;7.982;2023-10-09T09:47:30;97472.00;;;16.13;56.98
48800;BME280;34611;47.964;7.982;2023-10-09T09:54:36;97478.06;;;16.14;56.87
48800;BME280;34611;47.964;7.982;2023-10-09T10:01:38;97472.00;;;16.13;56.96
48800;BME280;34611;47.964;7.982;2023-10-09T10:08:43;97482.50;;;16.13;56.89
48800;BME280;34611;47.964;7.982;2023-10-09T10:23:18;97487.59;;;16.15;56.97
48800;BME280;34611;47.964;7.982;2023-10-09T10:37:38;97499.88;;;16.14;56.87
48800;BME280;34611;47.964;7.982;2023-10-09T10:44:44;97497.25;;;16.14;56.88
48800;BME280;34611;47.964;7.982;2023-10-09T10:51:45;97498.09;;;16.15;56.92
48800;BME280;34611;47.964;7.982;2023-10-09T10:58:52;97492.00;;;16.14;56.97
48800;BME280;34611;47.964;7.982;2023-10-09T11:06:05;97498.91;;;16.15;57.02
48800;BME280;34611;47.964;7.982;2023-10-09T11:13:20;97493.66;;;16.15;56.99
48800;BME280;34611;47.964;7.982;2023-10-09T11:20:34;97477.94;;;16.15;57.03
48800;BME280;34611;47.964;7.982;2023-10-09T11:27:35;97475.31;;;16.15;57.03
48800;BME280;34611;47.964;7.982;2023-10-09T11:34:39;97475.31;;;16.15;57.06
48800;BME280;34611;47.964;7.982;2023-10-09T11:41:45;97453.50;;;16.15;56.96
48800;BME280;34611;47.964;7.982;2023-10-09T11:49:01;97443.00;;;16.15;57.09
48800;BME280;34611;47.964;7.982;2023-10-09T11:56:22;97429.06;;;16.14;57.01
48800;BME280;34611;47.964;7.982;2023-10-09T12:03:23;97430.72;;;16.15;57.01
48800;BME280;34611;47.964;7.982;2023-10-09T12:10:28;97425.47;;;16.15;56.97
48800;BME280;34611;47.964;7.982;2023-10-09T12:17:30;97415.78;;;16.16;57.08
48800;BME280;34611;47.964;7.982;2023-10-09T12:24:31;97409.59;;;16.17;57.02
48800;BME280;34611;47.964;7.982;2023-10-09T12:31:33;97400.06;;;16.16;57.10
48800;BME280;34611;47.964;7.982;2023-10-09T12:38:34;97393.19;;;16.15;57.00
48800;BME280;34611;47.964;7.982;2023-10-09T12:45:34;97384.31;;;16.16;57.03
48800;BME280;34611;47.964;7.982;2023-10-09T12:52:34;97376.44;;;16.16;57.12
48800;BME280;34611;47.964;7.982;2023-10-09T12:59:37;97374.66;;;16.16;57.14
48800;BME280;34611;47.964;7.982;2023-10-09T13:06:38;97374.66;;;16.16;57.09
48800;BME280;34611;47.964;7.982;2023-10-09T13:13:46;97367.63;;;16.17;57.19
48800;BME280;34611;47.964;7.982;2023-10-09T13:20:52;97360.72;;;16.16;57.11
48800;BME280;34611;47.964;7.982;2023-10-09T13:27:52;97352.84;;;16.16;57.12
48800;BME280;34611;47.964;7.982;2023-10-09T13:34:53;97344.00;;;16.17;57.19
48800;BME280;34611;47.964;7.982;2023-10-09T13:41:56;97332.69;;;16.16;57.16
48800;BME280;34611;47.964;7.982;2023-10-09T13:48:59;97338.78;;;16.17;57.21
48800;BME280;34611;47.964;7.982;2023-10-09T13:56:00;97321.22;;;16.17;57.25
48800;BME280;34611;47.964;7.982;2023-10-09T14:03:00;97320.41;;;16.17;57.20
48800;BME280;34611;47.964;7.982;2023-10-09T14:10:13;97315.16;;;16.17;57.24
48800;BME280;34611;47.964;7.982;2023-10-09T14:17:25;97307.28;;;16.17;57.24
48800;BME280;34611;47.964;7.982;2023-10-09T14:24:27;97302.88;;;16.17;57.23
48800;BME280;34611;47.964;7.982;2023-10-09T14:31:33;97305.50;;;16.17;57.18
48800;BME280;34611;47.964;7.982;2023-10-09T14:38:38;97311.56;;;16.18;57.29
48800;BME280;34611;47.964;7.982;2023-10-09T14:45:39;97308.09;;;16.17;57.36
48800;BME280;34611;47.964;7.982;2023-10-09T14:52:39;97302.88;;;16.17;57.24
48800;BME280;34611;47.964;7.982;2023-10-09T14:59:40;97296.81;;;16.17;57.33
48800;BME280;34611;47.964;7.982;2023-10-09T15:06:42;97297.63;;;16.17;57.32
48800;BME280;34611;47.964;7.982;2023-10-09T15:13:43;97307.13;;;16.18;57.24
48800;BME280;34611;47.964;7.982;2023-10-09T15:20:43;97302.03;;;16.17;57.28
48800;BME280;34611;47.964;7.982;2023-10-09T15:27:45;97308.94;;;16.18;57.29
48800;BME280;34611;47.964;7.982;2023-10-09T15:34:45;97319.41;;;16.18;57.38
48800;BME280;34611;47.964;7.982;2023-10-09T15:41:46;97312.38;;;16.18;57.29
48800;BME280;34611;47.964;7.982;2023-10-09T15:48:46;97311.56;;;16.18;57.28
48800;BME280;34611;47.964;7.982;2023-10-09T15:55:48;97308.09;;;16.17;57.27
48800;BME280;34611;47.964;7.982;2023-10-09T16:02:54;97315.00;;;16.18;57.30
48800;BME280;34611;47.964;7.982;2023-10-09T16:09:54;97319.41;;;16.18;57.39
48800;BME280;34611;47.964;7.982;2023-10-09T16:16:55;97321.09;;;16.19;57.45
48800;BME280;34611;47.964;7.982;2023-10-09T16:23:55;97332.38;;;16.19;57.33
48800;BME280;34611;47.964;7.982;2023-10-09T16:30:59;97331.56;;;16.19;57.53
48800;BME280;34611;47.964;7.982;2023-10-09T16:38:00;97335.97;;;16.18;57.29
48800;BME280;34611;47.964;7.982;2023-10-09T16:45:05;97353.38;;;16.19;57.42
48800;BME280;34611;47.964;7.982;2023-10-09T16:52:09;97346.47;;;16.18;57.53
48800;BME280;34611;47.964;7.982;2023-10-09T16:59:11;97337.63;;;16.19;57.36
48800;BME280;34611;47.964;7.982;2023-10-09T17:06:14;97315.84;;;16.19;57.52
48800;BME280;34611;47.964;7.982;2023-10-09T17:13:17;97311.41;;;16.19;57.43
48800;BME280;34611;47.964;7.982;2023-10-09T17:20:24;97314.84;;;16.20;57.42
48800;BME280;34611;47.964;7.982;2023-10-09T17:27:27;97318.47;;;16.19;57.46
48800;BME280;34611;47.964;7.982;2023-10-09T17:34:27;97318.28;;;16.21;57.57
48800;BME280;34611;47.964;7.982;2023-10-09T17:41:27;97319.28;;;16.19;57.41
48800;BME280;34611;47.964;7.982;2023-10-09T17:48:30;97337.16;;;16.24;57.50
48800;BME280;34611;47.964;7.982;2023-10-09T17:55:31;97339.25;;;16.21;57.62
48800;BME280;34611;47.964;7.982;2023-10-09T18:02:35;97347.13;;;16.21;57.75
48800;BME280;34611;47.964;7.982;2023-10-09T18:09:38;97333.19;;;16.20;57.60
48800;BME280;34611;47.964;7.982;2023-10-09T18:16:40;97328.78;;;16.21;57.63
48800;BME280;34611;47.964;7.982;2023-10-09T18:23:41;97335.00;;;16.19;57.63
48800;BME280;34611;47.964;7.982;2023-10-09T18:30:45;97339.25;;;16.21;57.52
48800;BME280;34611;47.964;7.982;2023-10-09T18:37:49;97347.13;;;16.21;57.49
48800;BME280;34611;47.964;7.982;2023-10-09T18:44:50;97347.97;;;16.21;57.49
48800;BME280;34611;47.964;7.982;2023-10-09T18:51:51;97343.69;;;16.20;57.64
48800;BME280;34611;47.964;7.982;2023-10-09T18:58:51;97344.50;;;16.21;57.70
48800;BME280;34611;47.964;7.982;2023-10-09T19:05:52;97346.31;;;16.20;57.52
48800;BME280;34611;47.964;7.982;2023-10-09T19:12:52;97357.63;;;16.21;57.55
48800;BME280;34611;47.964;7.982;2023-10-09T19:19:52;97370.75;;;16.21;57.55
48800;BME280;34611;47.964;7.982;2023-10-09T19:26:54;97370.75;;;16.21;57.61
48800;BME280;34611;47.964;7.982;2023-10-09T19:33:56;97372.56;;;16.20;57.51
48800;BME280;34611;47.964;7.982;2023-10-09T19:40:57;97383.72;;;16.22;57.74
48800;BME280;34611;47.964;7.982;2023-10-09T19:47:57;97381.25;;;16.21;57.67
48800;BME280;34611;47.964;7.982;2023-10-09T19:54:57;97391.72;;;16.21;57.59
48800;BME280;34611;47.964;7.982;2023-10-09T20:01:58;97382.09;;;16.21;57.59
48800;BME280;34611;47.964;7.982;2023-10-09T20:08:59;97372.41;;;16.22;57.68
48800;BME280;34611;47.964;7.982;2023-10-09T20:15:59;97369.78;;;16.22;57.61
48800;BME280;34611;47.964;7.982;2023-10-09T20:23:00;97361.91;;;16.22;57.55
48800;BME280;34611;47.964;7.982;2023-10-09T20:30:03;97367.16;;;16.22;57.59
48800;BME280;34611;47.964;7.982;2023-10-09T20:37:04;97381.09;;;16.22;57.63
48800;BME280;34611;47.964;7.982;2023-10-09T20:44:05;97382.91;;;16.22;57.75
48800;BME280;34611;47.964;7.982;2023-10-09T20:51:06;97396.00;;;16.22;57.60
48800;BME280;34611;47.964;7.982;2023-10-09T20:58:08;97400.28;;;16.23;57.73
48800;BME280;34611;47.964;7.982;2023-10-09T21:05:10;97406.38;;;16.23;57.72
48800;BME280;34611;47.964;7.982;2023-10-09T21:12:12;97410.75;;;16.23;57.72
48800;BME280;34611;47.964;7.982;2023-10-09T21:19:15;97407.31;;;16.22;57.54
48800;BME280;34611;47.964;7.982;2023-10-09T21:26:19;97402.09;;;16.22;57.72
48800;BME280;34611;47.964;7.982;2023-10-09T21:33:19;97398.63;;;16.22;57.73
48800;BME280;34611;47.964;7.982;2023-10-09T21:40:20;97405.53;;;16.23;57.64
48800;BME280;34611;47.964;7.982;2023-10-09T21:47:28;97400.28;;;16.23;57.76
48800;BME280;34611;47.964;7.982;2023-10-09T21:54:28;97413.38;;;16.23;57.73
48800;BME280;34611;47.964;7.982;2023-10-09T22:01:28;97402.09;;;16.22;57.73
48800;BME280;34611;47.964;7.982;2023-10-09T22:08:28;97396.84;;;16.22;57.75
48800;BME280;34611;47.964;7.982;2023-10-09T22:15:29;97390.63;;;16.23;57.69
48800;BME280;34611;47.964;7.982;2023-10-09T22:22:30;97386.34;;;16.22;57.75
48800;BME280;34611;47.964;7.982;2023-10-09T22:29:32;97399.47;;;16.22;57.78
48800;BME280;34611;47.964;7.982;2023-10-09T22:36:33;97401.94;;;16.24;57.84
48800;BME280;34611;47.964;7.982;2023-10-09T22:43:45;97405.53;;;16.23;57.82
48800;BME280;34611;47.964;7.982;2023-10-09T22:50:46;97407.19;;;16.24;57.85
48800;BME280;34611;47.964;7.982;2023-10-09T22:57:47;97405.53;;;16.23;57.74
48800;BME280;34611;47.964;7.982;2023-10-09T23:04:54;97418.63;;;16.23;57.77
48800;BME280;34611;47.964;7.982;2023-10-09T23:12:04;97416.00;;;16.23;57.76
48800;BME280;34611;47.964;7.982;2023-10-09T23:19:07;97408.16;;;16.23;57.92
48800;BME280;34611;47.964;7.982;2023-10-09T23:26:07;97405.53;;;16.23;57.76
48800;BME280;34611;47.964;7.982;2023-10-09T23:33:09;97405.53;;;16.23;57.67
48800;BME280;34611;47.964;7.982;2023-10-09T23:40:10;97413.38;;;16.23;57.88
48800;BME280;34611;47.964;7.982;2023-10-09T23:47:16;97405.53;;;16.23;57.76
48800;BME280;34611;47.964;7.982;2023-10-09T23:54:17;97393.41;;;16.22;57.83
